Time;durP1;ratioP1;P1;durP2;ratioP2;P2;SDS_P1;SDS_P2;PMS_P1;PMS_P2;Temp;Humidity;BMP_temperature;BMP_pressure;BME280_temperature;BME280_humidity;BME280_pressure;Samples;Min_cycle;Max_cycle;Signal;HPM_P1;HPM_P2
2023/04/07 00:01:37;;;;;;;22.77;14.05;;;;;;;8.39;100.00;100923.72;5012523;28;20112;-67
2023/04/07 00:04:02;;;;;;;21.30;13.32;;;;;;;8.38;100.00;100920.28;5008166;28;20395;-67
2023/04/07 00:06:28;;;;;;;20.83;12.98;;;;;;;8.39;100.00;100934.03;5010615;28;20049;-67
2023/04/07 00:08:53;;;;;;;22.70;13.85;;;;;;;8.38;100.00;100933.16;5008761;28;20534;-67
2023/04/07 00:11:18;;;;;;;22.65;13.25;;;;;;;8.39;100.00;100931.44;5010736;28;20279;-67
2023/04/07 00:13:44;;;;;;;23.38;14.23;;;;;;;8.38;100.00;100938.31;5024210;28;20040;-67
2023/04/07 00:16:09;;;;;;;23.38;13.93;;;;;;;8.38;100.00;100935.75;5018937;28;20120;-67
2023/04/07 00:18:35;;;;;;;21.88;13.40;;;;;;;8.39;100.00;100932.31;5012094;28;20087;-67
2023/04/07 00:21:00;;;;;;;23.65;15.05;;;;;;;8.40;100.00;100925.44;5011751;28;20044;-67
2023/04/07 00:23:26;;;;;;;21.98;13.55;;;;;;;8.39;100.00;100921.16;5015091;28;20047;-66
2023/04/07 00:25:51;;;;;;;25.30;15.20;;;;;;;8.39;100.00;100922.00;5013903;28;20474;-67
2023/04/07 00:28:16;;;;;;;25.50;14.98;;;;;;;8.39;100.00;100921.16;5025385;28;20029;-67
2023/04/07 00:30:42;;;;;;;23.83;15.30;;;;;;;8.38;100.00;100920.28;5016318;28;20195;-68
2023/04/07 00:33:07;;;;;;;22.08;16.00;;;;;;;8.39;100.00;100916.00;5010596;28;20034;-67
2023/04/07 00:35:32;;;;;;;22.48;15.25;;;;;;;8.38;100.00;100915.13;5009982;28;20037;-67
2023/04/07 00:37:58;;;;;;;25.20;15.73;;;;;;;8.37;100.00;100909.97;5019943;28;20687;-67
2023/04/07 00:40:23;;;;;;;23.67;14.60;;;;;;;8.37;100.00;100909.97;5019263;28;20041;-67
2023/04/07 00:42:49;;;;;;;23.45;14.50;;;;;;;8.38;100.00;100911.69;5010581;28;20072;-67
2023/04/07 00:45:14;;;;;;;25.23;14.60;;;;;;;8.38;100.00;100914.28;5013956;28;20042;-68
2023/04/07 00:47:40;;;;;;;24.90;14.68;;;;;;;8.38;100.00;100915.13;5012409;28;20041;-67
2023/04/07 00:50:06;;;;;;;24.52;14.95;;;;;;;8.39;100.00;100906.56;5009579;28;20045;-67
2023/04/07 00:52:32;;;;;;;24.50;15.05;;;;;;;8.39;100.00;100914.28;5013380;28;20108;-68
2023/04/07 00:55:01;;;;;;;23.17;14.38;;;;;;;8.40;100.00;100903.09;5016493;28;20787;-67
2023/04/07 00:57:26;;;;;;;25.35;14.15;;;;;;;8.41;100.00;100902.25;5010642;28;20183;-67
2023/04/07 00:59:52;;;;;;;23.85;13.48;;;;;;;8.42;100.00;100905.72;5013769;28;20053;-67
2023/04/07 01:02:41;;;;;;;25.20;13.32;;;;;;;8.42;100.00;100904.00;5017705;28;20171;-67
2023/04/07 01:05:20;;;;;;;20.25;12.65;;;;;;;8.42;100.00;100892.81;5013628;28;20049;-67
2023/04/07 01:07:55;;;;;;;24.20;13.88;;;;;;;8.43;100.00;100897.97;5017789;28;20026;-66
2023/04/07 01:10:34;;;;;;;22.50;13.77;;;;;;;8.45;100.00;100892.84;5009020;28;20033;-67
2023/04/07 01:13:19;;;;;;;21.85;13.68;;;;;;;8.45;100.00;100898.00;5007077;28;20045;-67
2023/04/07 01:15:48;;;;;;;21.15;12.80;;;;;;;8.46;100.00;100897.97;5014746;28;20624;-66
2023/04/07 01:18:19;;;;;;;21.95;13.57;;;;;;;8.47;100.00;100891.13;5013305;28;20495;-66
2023/04/07 01:20:50;;;;;;;22.65;12.77;;;;;;;8.47;100.00;100891.97;5018457;28;21247;-66
2023/04/07 01:24:03;;;;;;;24.75;13.88;;;;;;;8.49;100.00;100891.97;5017849;28;20042;-66
2023/04/07 01:26:32;;;;;;;21.10;11.90;;;;;;;8.50;100.00;100889.41;4999466;28;20042;-66
2023/04/07 01:29:04;;;;;;;20.75;12.50;;;;;;;8.50;100.00;100891.97;5010868;28;20741;-66
2023/04/07 01:31:29;;;;;;;25.08;13.32;;;;;;;8.52;100.00;100898.00;5020137;28;20116;-66
2023/04/07 01:33:58;;;;;;;26.42;13.20;;;;;;;8.52;100.00;100890.25;5016948;28;20042;-67
2023/04/07 01:36:27;;;;;;;23.92;13.05;;;;;;;8.54;100.00;100895.44;5019294;28;20599;-66
2023/04/07 01:38:54;;;;;;;27.10;13.25;;;;;;;8.55;100.00;100899.72;5016907;28;20125;-66
2023/04/07 01:41:20;;;;;;;21.88;11.90;;;;;;;8.57;100.00;100898.00;5017962;28;20061;-67
2023/04/07 01:43:47;;;;;;;17.88;11.55;;;;;;;8.58;100.00;100900.56;5018635;28;20037;-66
2023/04/07 01:46:14;;;;;;;21.70;12.95;;;;;;;8.60;100.00;100897.16;5019616;28;20065;-66
2023/04/07 01:48:40;;;;;;;22.52;12.85;;;;;;;8.60;100.00;100900.59;5016473;28;20042;-67
2023/04/07 01:51:07;;;;;;;23.77;12.82;;;;;;;8.62;100.00;100898.88;5016027;28;20034;-66
2023/04/07 01:53:36;;;;;;;22.08;11.90;;;;;;;8.64;100.00;100888.56;5015290;28;20076;-66
2023/04/07 01:56:02;;;;;;;19.13;12.07;;;;;;;8.66;100.00;100886.88;5012738;28;20037;-66
2023/04/07 01:58:28;;;;;;;22.42;12.75;;;;;;;8.67;100.00;100892.00;5016733;28;20053;-67
2023/04/07 02:00:53;;;;;;;21.90;11.82;;;;;;;8.68;100.00;100888.56;5018992;28;20038;-67
2023/04/07 02:03:54;;;;;;;21.80;12.77;;;;;;;8.72;100.00;100885.16;5010237;28;20080;-66
2023/04/07 02:06:25;;;;;;;22.50;13.73;;;;;;;8.74;100.00;100888.59;5020939;28;20128;-66
2023/04/07 02:08:56;;;;;;;26.38;14.45;;;;;;;8.77;100.00;100880.00;5019866;28;20055;-66
2023/04/07 02:11:24;;;;;;;30.83;16.33;;;;;;;8.78;100.00;100882.59;5018084;28;20033;-66
2023/04/07 02:13:53;;;;;;;29.00;15.55;;;;;;;8.81;100.00;100886.88;5021689;28;20138;-66
2023/04/07 02:16:19;;;;;;;33.13;17.63;;;;;;;8.81;100.00;100892.88;5017084;28;20076;-66
2023/04/07 02:18:46;;;;;;;36.78;19.77;;;;;;;8.85;100.00;100888.56;5016758;28;20206;-66
2023/04/07 02:21:14;;;;;;;39.10;19.85;;;;;;;8.87;100.00;100890.28;5019436;28;20034;-65
2023/04/07 02:23:40;;;;;;;42.97;20.80;;;;;;;8.89;100.00;100888.59;5019098;28;20124;-66
2023/04/07 02:26:05;;;;;;;41.65;20.52;;;;;;;8.90;100.00;100892.88;5012875;28;20069;-66
2023/04/07 02:28:30;;;;;;;50.10;22.80;;;;;;;8.92;100.00;100887.72;5016283;28;20116;-66
2023/04/07 02:30:56;;;;;;;45.25;22.60;;;;;;;8.93;100.00;100889.47;5015413;28;20111;-66
2023/04/07 02:33:21;;;;;;;47.97;24.98;;;;;;;8.95;100.00;100888.59;5016369;28;20466;-66
2023/04/07 02:35:46;;;;;;;56.42;27.67;;;;;;;8.96;100.00;100886.88;5020183;28;20042;-65
2023/04/07 02:38:12;;;;;;;60.65;26.10;;;;;;;8.97;100.00;100891.16;5021571;28;20050;-66
2023/04/07 02:40:37;;;;;;;54.72;26.42;;;;;;;8.98;100.00;100890.31;5026139;28;20041;-66
2023/04/07 02:43:04;;;;;;;55.42;26.90;;;;;;;8.97;100.00;100889.44;5032698;28;20131;-66
2023/04/07 02:45:29;;;;;;;57.97;27.75;;;;;;;8.97;100.00;100892.03;5020252;28;20042;-67
2023/04/07 02:47:55;;;;;;;56.15;26.80;;;;;;;8.98;100.00;100898.06;5025377;28;20033;-67
2023/04/07 02:50:20;;;;;;;52.63;25.90;;;;;;;8.98;100.00;100892.91;5017199;28;20036;-66
2023/04/07 02:52:46;;;;;;;57.97;28.58;;;;;;;8.96;100.00;100892.88;5025098;28;20028;-66
2023/04/07 02:55:11;;;;;;;54.58;26.63;;;;;;;8.96;100.00;100892.88;5024961;28;20025;-67
2023/04/07 02:57:37;;;;;;;58.25;26.23;;;;;;;8.95;100.00;100893.75;5017086;28;20068;-66
2023/04/07 03:00:02;;;;;;;65.90;27.88;;;;;;;8.95;100.00;100893.75;5018762;28;20029;-66
2023/04/07 03:02:28;;;;;;;60.00;27.45;;;;;;;8.95;100.00;100896.34;5013024;28;20156;-66
2023/04/07 03:04:53;;;;;;;60.28;26.42;;;;;;;8.97;100.00;100899.75;5015427;28;20045;-65
2023/04/07 03:07:19;;;;;;;58.90;26.50;;;;;;;8.97;100.00;100901.47;5019463;28;20542;-66
2023/04/07 03:09:44;;;;;;;64.70;27.48;;;;;;;8.95;100.00;100896.34;5011499;28;20045;-67
2023/04/07 03:12:10;;;;;;;64.80;27.13;;;;;;;8.95;100.00;100898.03;5017272;28;20049;-67
2023/04/07 03:14:36;;;;;;;64.20;28.13;;;;;;;8.93;100.00;100895.44;5012278;28;20748;-67
2023/04/07 03:17:02;;;;;;;66.53;29.33;;;;;;;8.94;100.00;100896.31;5013208;28;20044;-66
2023/04/07 03:19:27;;;;;;;65.03;28.02;;;;;;;8.94;100.00;100907.50;5019004;28;20029;-67
2023/04/07 03:21:53;;;;;;;75.93;29.48;;;;;;;8.93;100.00;100894.63;5017767;28;20037;-66
2023/04/07 03:24:18;;;;;;;73.35;31.02;;;;;;;8.94;100.00;100901.47;5016317;28;20127;-66
2023/04/07 03:26:43;;;;;;;74.93;29.50;;;;;;;8.94;100.00;100902.34;5009692;28;20042;-65
2023/04/07 03:29:09;;;;;;;76.00;30.85;;;;;;;8.94;100.00;100902.34;5004063;28;20042;-65
2023/04/07 03:31:36;;;;;;;72.25;30.65;;;;;;;8.94;100.00;100904.06;5019230;28;20041;-65
2023/04/07 03:34:01;;;;;;;80.78;31.38;;;;;;;8.93;100.00;100898.03;5016595;28;20030;-65
2023/04/07 03:36:27;;;;;;;80.53;32.25;;;;;;;8.94;100.00;100902.34;5027400;28;20041;-66
2023/04/07 03:38:52;;;;;;;82.18;32.05;;;;;;;8.94;100.00;100893.75;5009247;28;20076;-66
2023/04/07 03:41:17;;;;;;;79.88;31.58;;;;;;;8.93;100.00;100900.59;5017386;28;20560;-67
2023/04/07 03:43:43;;;;;;;86.22;32.58;;;;;;;8.95;100.00;100900.63;5014844;28;20086;-66
2023/04/07 03:46:08;;;;;;;77.95;30.75;;;;;;;8.92;100.00;100896.34;5030149;28;20115;-67
2023/04/07 03:48:34;;;;;;;81.93;33.90;;;;;;;8.93;100.00;100900.59;5014735;28;20045;-66
2023/04/07 03:50:59;;;;;;;79.47;32.47;;;;;;;8.92;100.00;100904.06;5014642;28;20072;-67
2023/04/07 03:53:24;;;;;;;89.68;31.92;;;;;;;8.92;100.00;100911.81;5017198;28;20095;-67
2023/04/07 03:55:50;;;;;;;86.50;32.90;;;;;;;8.92;100.00;100910.94;5011448;28;20437;-66
2023/04/07 03:58:16;;;;;;;79.68;31.02;;;;;;;8.92;100.00;100906.66;5017063;28;20120;-67
2023/04/07 04:00:41;;;;;;;80.95;31.35;;;;;;;8.92;100.00;100904.06;5013872;28;20077;-67
2023/04/07 04:03:07;;;;;;;80.88;32.13;;;;;;;8.91;100.00;100906.63;5015528;28;20111;-67
2023/04/07 04:05:32;;;;;;;75.82;33.25;;;;;;;8.90;100.00;100910.09;5010974;28;20402;-66
2023/04/07 04:07:58;;;;;;;82.03;33.20;;;;;;;8.89;100.00;100909.22;5011913;28;21020;-66
2023/04/07 04:10:23;;;;;;;83.50;31.75;;;;;;;8.90;100.00;100915.25;5017346;28;20041;-66
2023/04/07 04:12:48;;;;;;;81.30;32.10;;;;;;;8.90;100.00;100915.25;5017532;28;20067;-67
2023/04/07 04:15:14;;;;;;;71.75;29.98;;;;;;;8.88;100.00;100919.50;5010828;28;20104;-67
2023/04/07 04:17:40;;;;;;;75.97;32.25;;;;;;;8.87;100.00;100915.22;5013282;28;20041;-67
2023/04/07 04:20:06;;;;;;;76.95;31.52;;;;;;;8.86;100.00;100911.78;5020594;28;20095;-67
2023/04/07 04:22:32;;;;;;;75.55;30.17;;;;;;;8.87;100.00;100912.66;5016689;28;20022;-66
2023/04/07 04:24:58;;;;;;;81.47;31.58;;;;;;;8.86;100.00;100922.09;5009749;28;20609;-66
2023/04/07 04:27:23;;;;;;;84.10;35.25;;;;;;;8.86;100.00;100927.25;5014899;28;20120;-67
2023/04/07 04:29:49;;;;;;;75.82;30.98;;;;;;;8.86;100.00;100923.81;5011594;28;20034;-66
2023/04/07 04:32:15;;;;;;;68.68;30.17;;;;;;;8.81;100.00;100918.63;5011323;28;20565;-67
2023/04/07 04:34:41;;;;;;;75.30;31.77;;;;;;;8.78;100.00;100925.53;5031652;28;20045;-66
2023/04/07 04:37:06;;;;;;;77.70;32.47;;;;;;;8.78;100.00;100928.13;5013515;28;20790;-67
2023/04/07 04:39:32;;;;;;;71.05;31.27;;;;;;;8.77;100.00;100928.97;5016308;28;20038;-67
2023/04/07 04:41:57;;;;;;;70.03;31.00;;;;;;;8.75;100.00;100941.84;5008634;28;20034;-67
2023/04/07 04:44:23;;;;;;;69.32;32.10;;;;;;;8.72;100.00;100944.44;5009347;28;20517;-67
2023/04/07 04:46:48;;;;;;;67.97;30.77;;;;;;;8.70;100.00;100943.53;5012504;28;20095;-66
2023/04/07 04:49:15;;;;;;;80.43;32.22;;;;;;;8.69;100.00;100944.41;5015856;28;20033;-67
2023/04/07 04:51:40;;;;;;;69.28;31.77;;;;;;;8.67;100.00;100938.38;5017552;28;20425;-67
2023/04/07 04:54:06;;;;;;;68.15;31.65;;;;;;;8.66;100.00;100943.53;5012297;28;20033;-67
2023/04/07 04:56:31;;;;;;;71.60;31.45;;;;;;;8.65;100.00;100941.81;5017996;28;20065;-67
2023/04/07 04:58:57;;;;;;;66.20;29.83;;;;;;;8.63;100.00;100948.69;5020657;28;20034;-66
2023/04/07 05:01:22;;;;;;;70.45;31.67;;;;;;;8.61;100.00;100953.81;5007591;28;20112;-68
2023/04/07 05:03:49;;;;;;;76.40;32.13;;;;;;;8.60;100.00;100953.84;5017453;28;20064;-68
2023/04/07 05:06:14;;;;;;;74.35;32.38;;;;;;;8.58;100.00;100956.41;5011376;28;20062;-67
2023/04/07 05:08:39;;;;;;;71.85;31.63;;;;;;;8.58;100.00;100961.53;5013756;28;20049;-68
2023/04/07 05:11:05;;;;;;;68.90;30.92;;;;;;;8.56;100.00;100964.13;5007418;28;20037;-67
2023/04/07 05:13:30;;;;;;;71.50;31.50;;;;;;;8.55;100.00;100957.25;5011282;28;20657;-67
2023/04/07 05:15:55;;;;;;;79.80;34.30;;;;;;;8.54;100.00;100965.81;5013192;28;20118;-68
2023/04/07 05:18:21;;;;;;;74.28;32.08;;;;;;;8.51;100.00;100960.69;5017900;28;20686;-68
2023/04/07 05:20:48;;;;;;;80.28;31.92;;;;;;;8.51;100.00;100967.56;5019588;28;20587;-67
2023/04/07 05:23:14;;;;;;;73.18;32.78;;;;;;;8.50;100.00;100960.69;5016846;28;20037;-68
2023/04/07 05:25:40;;;;;;;75.70;32.17;;;;;;;8.50;100.00;100961.53;5013943;28;20040;-66
2023/04/07 05:28:05;;;;;;;68.93;32.10;;;;;;;8.51;100.00;100967.56;5016164;28;20033;-68
2023/04/07 05:30:31;;;;;;;76.25;33.25;;;;;;;8.49;100.00;100970.13;5015089;28;20213;-67
2023/04/07 05:32:56;;;;;;;73.40;33.83;;;;;;;8.48;100.00;100971.00;5018754;28;20124;-66
2023/04/07 05:35:22;;;;;;;77.85;33.40;;;;;;;8.50;100.00;100968.41;5026297;28;20731;-66
2023/04/07 05:37:48;;;;;;;82.82;33.92;;;;;;;8.50;100.00;100973.56;5015593;28;20033;-66
2023/04/07 05:40:14;;;;;;;77.65;32.35;;;;;;;8.49;100.00;100974.41;5017050;28;20024;-67
2023/04/07 05:42:39;;;;;;;76.95;36.75;;;;;;;8.49;100.00;100974.41;5025471;28;20064;-67
2023/04/07 05:45:05;;;;;;;80.90;36.55;;;;;;;8.49;100.00;100964.97;5028595;28;20045;-67
2023/04/07 05:47:31;;;;;;;80.93;35.67;;;;;;;8.50;100.00;100968.41;5011094;28;20038;-67
2023/04/07 05:49:56;;;;;;;77.90;35.80;;;;;;;8.49;100.00;100972.69;5021404;28;20037;-67
2023/04/07 05:52:22;;;;;;;81.15;33.35;;;;;;;8.49;100.00;100974.41;5022742;28;20430;-67
2023/04/07 05:54:47;;;;;;;72.25;31.70;;;;;;;8.46;100.00;100985.56;5028002;28;20059;-68
2023/04/07 05:57:13;;;;;;;82.28;35.55;;;;;;;8.46;100.00;100984.69;5022118;28;20051;-68
2023/04/07 05:59:38;;;;;;;73.07;33.42;;;;;;;8.44;100.00;100982.13;5021291;28;20064;-67
2023/04/07 06:02:03;;;;;;;77.95;32.92;;;;;;;8.45;100.00;100986.44;5019175;28;20431;-67
2023/04/07 06:04:29;;;;;;;77.68;33.20;;;;;;;8.47;100.00;100989.00;5020456;28;20029;-67
2023/04/07 06:06:54;;;;;;;78.60;33.33;;;;;;;8.46;100.00;100990.72;5019684;28;20060;-68
2023/04/07 06:09:23;;;;;;;71.57;31.92;;;;;;;8.45;100.00;100989.00;5018421;28;20392;-68
2023/04/07 06:11:48;;;;;;;71.60;32.38;;;;;;;8.45;100.00;100993.28;5024491;28;20561;-67
2023/04/07 06:14:14;;;;;;;80.55;32.15;;;;;;;8.46;100.00;101001.00;5015200;28;20065;-67
2023/04/07 06:16:39;;;;;;;65.35;29.17;;;;;;;8.45;100.00;101001.88;5017413;28;20119;-67
2023/04/07 06:19:06;;;;;;;63.10;28.45;;;;;;;8.44;100.00;101005.31;5016085;28;20044;-68
2023/04/07 06:21:32;;;;;;;65.00;31.20;;;;;;;8.47;100.00;101009.59;5022212;28;20025;-68
2023/04/07 06:23:57;;;;;;;61.95;29.33;;;;;;;8.46;100.00;101006.16;5021362;28;20029;-68
2023/04/07 06:26:23;;;;;;;60.92;28.30;;;;;;;8.47;100.00;101015.63;5022422;28;20053;-68
2023/04/07 06:28:48;;;;;;;65.75;27.77;;;;;;;8.49;100.00;101008.75;5014863;28;20048;-68
2023/04/07 06:31:14;;;;;;;58.83;26.70;;;;;;;8.48;100.00;101011.34;5018873;28;20555;-68
2023/04/07 06:33:39;;;;;;;56.58;25.13;;;;;;;8.46;100.00;101011.31;5012875;28;20039;-68
2023/04/07 06:36:05;;;;;;;56.55;26.50;;;;;;;8.47;100.00;101014.75;5025153;28;20041;-68
2023/04/07 06:38:31;;;;;;;59.15;27.55;;;;;;;8.47;100.00;101017.34;5025418;28;20043;-68
2023/04/07 06:40:56;;;;;;;60.85;27.00;;;;;;;8.48;100.00;101017.34;5012642;28;20045;-67
2023/04/07 06:43:21;;;;;;;50.45;26.10;;;;;;;8.46;100.00;101023.31;5020560;28;20038;-68
2023/04/07 06:45:47;;;;;;;60.67;26.90;;;;;;;8.46;100.00;101025.91;5010949;28;20828;-68
2023/04/07 06:48:12;;;;;;;52.45;24.33;;;;;;;8.46;100.00;101029.34;5008648;28;20041;-68
2023/04/07 06:50:38;;;;;;;54.78;24.27;;;;;;;8.46;100.00;101031.91;5014560;28;20050;-68
2023/04/07 06:53:04;;;;;;;50.58;24.27;;;;;;;8.47;100.00;101030.22;5019063;28;20033;-68
2023/04/07 06:55:30;;;;;;;52.05;24.60;;;;;;;8.46;100.00;101037.06;5013582;28;20038;-67
2023/04/07 06:57:55;;;;;;;43.17;21.05;;;;;;;8.44;100.00;101035.34;5016031;28;20041;-68
2023/04/07 07:00:21;;;;;;;49.33;22.15;;;;;;;8.44;100.00;101041.38;5013063;28;20494;-67
2023/04/07 07:02:48;;;;;;;49.08;21.30;;;;;;;8.46;100.00;101043.94;5019964;28;20033;-67
2023/04/07 07:05:13;;;;;;;47.15;20.10;;;;;;;8.44;100.00;101041.38;5017407;28;20077;-67
2023/04/07 07:07:39;;;;;;;40.17;18.48;;;;;;;8.47;100.00;101046.53;5013015;28;20054;-66
2023/04/07 07:10:05;;;;;;;44.50;20.15;;;;;;;8.47;100.00;101038.81;5018994;28;20033;-66
2023/04/07 07:12:32;;;;;;;41.33;19.20;;;;;;;8.49;100.00;101047.41;5009260;28;20036;-67
2023/04/07 07:14:57;;;;;;;39.17;19.35;;;;;;;8.49;100.00;101046.53;5021865;28;20060;-67
2023/04/07 07:17:22;;;;;;;40.30;19.55;;;;;;;8.49;100.00;101054.25;5025488;28;20041;-68
2023/04/07 07:19:48;;;;;;;42.92;19.83;;;;;;;8.50;100.00;101056.84;5032440;28;20072;-67
2023/04/07 07:22:13;;;;;;;42.28;18.85;;;;;;;8.51;100.00;101053.44;5020701;28;20163;-68
2023/04/07 07:24:38;;;;;;;44.25;20.45;;;;;;;8.54;100.00;101065.47;5029385;28;20535;-68
2023/04/07 07:27:04;;;;;;;45.55;20.23;;;;;;;8.55;100.00;101067.16;5024536;28;20128;-68
2023/04/07 07:29:30;;;;;;;43.92;19.20;;;;;;;8.52;100.00;101060.28;5013552;28;20049;-63
2023/04/07 07:31:55;;;;;;;40.15;18.70;;;;;;;8.55;100.00;101067.16;5019475;28;20123;-63
2023/04/07 07:34:20;;;;;;;33.05;13.93;;;;;;;8.54;100.00;101070.63;5019425;28;20508;-63
2023/04/07 07:36:46;;;;;;;30.60;13.57;;;;;;;8.55;99.79;101064.59;5018274;28;20112;-63
2023/04/07 07:39:13;;;;;;;29.85;14.95;;;;;;;8.57;99.66;101073.22;5014421;28;20049;-68
2023/04/07 07:41:38;;;;;;;34.15;15.35;;;;;;;8.58;100.00;101073.19;5018404;28;20034;-68
2023/04/07 07:44:03;;;;;;;28.55;14.27;;;;;;;8.62;99.60;101079.22;5020092;28;20044;-68
2023/04/07 07:46:29;;;;;;;29.35;14.80;;;;;;;8.64;100.00;101084.38;5015258;28;20047;-69
2023/04/07 07:48:54;;;;;;;27.48;13.27;;;;;;;8.64;99.02;101080.09;5013338;28;20039;-69
2023/04/07 07:51:20;;;;;;;30.25;14.98;;;;;;;8.67;99.38;101081.81;5015787;28;20053;-68
2023/04/07 07:53:45;;;;;;;31.13;15.27;;;;;;;8.71;100.00;101083.56;5015566;28;20757;-69
2023/04/07 07:56:11;;;;;;;29.13;14.48;;;;;;;8.72;100.00;101087.88;5018536;28;20044;-69
2023/04/07 07:58:36;;;;;;;29.45;15.10;;;;;;;8.74;100.00;101088.72;5016742;28;20068;-64
2023/04/07 08:01:02;;;;;;;30.92;13.48;;;;;;;8.73;100.00;101087.88;5009898;28;20051;-64
2023/04/07 08:03:27;;;;;;;25.02;12.40;;;;;;;8.71;100.00;101099.03;5013511;28;20037;-63
2023/04/07 08:05:52;;;;;;;24.95;12.38;;;;;;;8.71;99.91;101096.44;5018458;28;20205;-64
2023/04/07 08:08:18;;;;;;;20.27;11.15;;;;;;;8.72;98.88;101095.59;5015455;28;20033;-64
2023/04/07 08:10:43;;;;;;;22.10;10.65;;;;;;;8.74;99.12;101106.78;5013707;28;20038;-63
2023/04/07 08:13:09;;;;;;;17.88;9.27;;;;;;;8.75;98.97;101099.06;5017080;28;20500;-64
2023/04/07 08:15:34;;;;;;;21.05;11.15;;;;;;;8.77;98.86;101104.22;5011771;28;20048;-64
2023/04/07 08:18:03;;;;;;;15.88;7.93;;;;;;;8.76;97.95;101103.34;5015457;28;20140;-64
2023/04/07 08:20:30;;;;;;;18.60;7.90;;;;;;;8.79;98.12;101100.78;5012171;28;20029;-65
2023/04/07 08:22:56;;;;;;;13.77;7.72;;;;;;;8.84;97.93;101109.38;5012284;28;20494;-64
2023/04/07 08:25:21;;;;;;;12.38;6.43;;;;;;;8.87;98.17;101117.13;5015805;28;20026;-64
2023/04/07 08:27:47;;;;;;;13.82;6.93;;;;;;;8.92;98.51;101112.88;5009876;28;20033;-64
2023/04/07 08:30:13;;;;;;;14.35;6.90;;;;;;;8.93;97.39;101117.16;5004496;28;20497;-64
2023/04/07 08:32:40;;;;;;;12.95;6.72;;;;;;;8.95;97.33;101118.03;5013696;28;20174;-63
2023/04/07 08:35:06;;;;;;;13.05;7.22;;;;;;;8.98;96.85;101115.47;5016567;28;20545;-64
2023/04/07 08:37:33;;;;;;;17.10;8.10;;;;;;;9.02;96.68;101119.75;5017544;28;20033;-64
2023/04/07 08:40:00;;;;;;;17.45;8.57;;;;;;;9.07;97.35;101122.38;5017306;28;20142;-64
2023/04/07 08:42:31;;;;;;;13.95;7.97;;;;;;;9.11;97.54;101118.94;5016364;28;20045;-64
2023/04/07 08:45:01;;;;;;;14.98;8.48;;;;;;;9.21;97.34;101130.16;5016542;28;20620;-64
2023/04/07 08:47:29;;;;;;;17.90;8.30;;;;;;;9.22;96.94;101127.59;5011860;28;20042;-63
2023/04/07 08:49:59;;;;;;;15.85;7.90;;;;;;;9.29;97.13;101131.06;5021786;28;20040;-64
2023/04/07 08:52:32;;;;;;;15.68;7.60;;;;;;;9.23;96.33;101124.13;5021323;28;20041;-63
2023/04/07 08:55:01;;;;;;;15.57;7.32;;;;;;;9.29;96.92;101131.06;5027653;28;20026;-63
2023/04/07 08:57:30;;;;;;;17.67;7.95;;;;;;;9.36;97.62;101140.50;5023950;28;20040;-64
2023/04/07 08:59:59;;;;;;;13.63;7.68;;;;;;;9.34;97.46;101137.06;5012972;28;20037;-64
2023/04/07 09:02:25;;;;;;;13.98;7.53;;;;;;;9.32;97.13;101139.63;5018448;28;20140;-64
2023/04/07 09:04:50;;;;;;;12.65;7.05;;;;;;;9.27;96.88;101140.47;5024272;28;20033;-63
2023/04/07 09:07:16;;;;;;;14.60;7.50;;;;;;;9.31;98.53;101139.66;5024690;28;20045;-67
2023/04/07 09:09:41;;;;;;;13.93;7.35;;;;;;;9.23;97.48;101139.59;5016201;28;20037;-67
2023/04/07 09:12:06;;;;;;;17.30;7.68;;;;;;;9.19;97.45;101139.59;5022236;28;20045;-67
2023/04/07 09:14:32;;;;;;;15.77;6.93;;;;;;;9.15;98.06;101146.47;5023313;28;20045;-63
2023/04/07 09:16:59;;;;;;;19.27;7.72;;;;;;;9.24;97.89;101148.22;5030617;28;20502;-64
2023/04/07 09:19:26;;;;;;;13.88;8.00;;;;;;;9.35;98.33;101149.09;5014653;28;20034;-63
2023/04/07 09:21:52;;;;;;;17.75;8.48;;;;;;;9.44;98.43;101149.13;5018976;28;20107;-64
2023/04/07 09:24:25;;;;;;;15.80;7.50;;;;;;;9.57;98.26;101156.03;5014373;28;20053;-63
2023/04/07 09:27:08;;;;;;;18.63;8.50;;;;;;;9.66;97.29;101149.22;5018196;28;20116;-63
2023/04/07 09:29:33;;;;;;;16.15;8.05;;;;;;;9.79;96.52;101154.41;5014070;28;20046;-64
2023/04/07 09:31:59;;;;;;;15.63;7.93;;;;;;;9.92;96.39;101149.22;5024266;28;20071;-63
2023/04/07 09:34:25;;;;;;;18.30;8.90;;;;;;;9.88;95.14;101157.81;5020792;28;20048;-64
2023/04/07 09:36:50;;;;;;;17.52;8.57;;;;;;;9.91;95.56;101162.16;5020888;28;20041;-63
2023/04/07 09:39:16;;;;;;;20.13;9.05;;;;;;;9.87;94.53;101150.09;5017688;28;20042;-64
2023/04/07 09:41:41;;;;;;;17.77;9.27;;;;;;;9.86;94.01;101153.53;5016226;28;20037;-64
2023/04/07 09:44:06;;;;;;;17.30;9.15;;;;;;;9.91;95.02;101150.06;5016298;28;20063;-63
2023/04/07 09:46:32;;;;;;;17.58;9.82;;;;;;;9.96;95.31;101145.78;5018952;28;20041;-63
2023/04/07 09:49:06;;;;;;;17.80;9.80;;;;;;;10.03;94.81;101149.25;5014891;28;20030;-64
2023/04/07 09:51:32;;;;;;;18.63;8.88;;;;;;;10.13;94.46;101154.41;5015890;28;20041;-65
2023/04/07 09:53:58;;;;;;;16.30;8.65;;;;;;;10.02;92.78;101148.38;5006554;28;20037;-64
2023/04/07 09:56:25;;;;;;;13.75;8.63;;;;;;;9.99;93.46;101156.13;5015105;28;20048;-64
2023/04/07 09:58:51;;;;;;;18.30;8.68;;;;;;;9.95;93.19;101149.22;5019124;28;20069;-64
2023/04/07 10:01:17;;;;;;;17.05;8.77;;;;;;;9.91;92.82;101152.66;5013261;28;20116;-64
2023/04/07 10:03:45;;;;;;;20.88;9.95;;;;;;;9.88;93.53;101155.22;5020886;28;20038;-64
2023/04/07 10:06:10;;;;;;;17.08;9.57;;;;;;;9.82;93.67;101160.44;5017781;28;20111;-64
2023/04/07 10:08:38;;;;;;;21.90;12.55;;;;;;;9.82;92.11;101151.81;5014861;28;20042;-64
2023/04/07 10:11:05;;;;;;;26.67;12.13;;;;;;;9.79;92.20;101155.25;5019739;28;20033;-64
2023/04/07 10:13:32;;;;;;;21.15;11.25;;;;;;;9.76;92.88;101152.69;5016114;28;20025;-64
2023/04/07 10:15:58;;;;;;;23.65;10.50;;;;;;;9.71;92.58;101162.09;5024160;28;20041;-64
2023/04/07 10:18:29;;;;;;;20.90;10.07;;;;;;;9.74;92.99;101158.66;5011332;28;20041;-64
2023/04/07 10:20:55;;;;;;;24.50;10.18;;;;;;;9.76;94.16;101164.72;5012787;28;20030;-64
2023/04/07 10:23:44;;;;;;;16.77;10.25;;;;;;;9.77;93.77;101161.25;5021013;28;20034;-65
2023/04/07 10:26:10;;;;;;;16.58;9.13;;;;;;;9.74;91.36;101164.69;5016355;28;20045;-66
2023/04/07 10:28:38;;;;;;;17.13;10.05;;;;;;;9.73;91.12;101167.28;5015335;28;20030;-66
2023/04/07 10:31:04;;;;;;;16.25;9.55;;;;;;;9.76;91.86;101169.88;5013826;28;20108;-67
2023/04/07 10:34:00;;;;;;;15.32;9.15;;;;;;;9.75;90.61;101173.31;5016374;28;20055;-65
2023/04/07 10:36:27;;;;;;;20.20;9.40;;;;;;;9.72;91.41;101169.00;5013897;28;20130;-65
2023/04/07 10:39:08;;;;;;;18.60;11.02;;;;;;;9.81;91.69;101175.91;5019218;28;20037;-65
2023/04/07 10:41:40;;;;;;;16.67;8.73;;;;;;;9.86;91.89;101184.50;5018463;28;20042;-66
2023/04/07 10:44:30;;;;;;;16.50;9.45;;;;;;;9.88;91.39;101181.06;5016133;28;20541;-66
2023/04/07 10:46:55;;;;;;;13.38;8.63;;;;;;;9.93;92.86;101184.53;5012351;28;20144;-66
2023/04/07 10:49:20;;;;;;;20.13;9.18;;;;;;;9.93;92.43;101189.69;5011625;28;20026;-65
2023/04/07 10:52:10;;;;;;;20.55;9.70;;;;;;;9.90;91.66;101184.53;5014784;28;20068;-66
2023/04/07 10:54:36;;;;;;;16.55;9.52;;;;;;;9.93;91.61;101183.66;5015367;28;20045;-66
2023/04/07 10:57:02;;;;;;;21.48;10.30;;;;;;;9.93;89.98;101188.81;5019330;28;20037;-65
2023/04/07 10:59:33;;;;;;;19.65;10.25;;;;;;;9.97;89.67;101191.41;5018983;28;20044;-67
2023/04/07 11:02:13;;;;;;;19.23;10.27;;;;;;;10.05;88.15;101188.84;5015844;28;20396;-65
2023/04/07 11:04:45;;;;;;;19.55;10.23;;;;;;;10.08;87.54;101189.72;5030775;28;20044;-66
2023/04/07 11:07:13;;;;;;;19.25;10.88;;;;;;;10.12;87.79;101194.00;5016825;28;20022;-66
2023/04/07 11:09:41;;;;;;;20.73;12.30;;;;;;;10.16;88.85;101194.84;5019414;28;20129;-67
2023/04/07 11:12:07;;;;;;;21.77;11.48;;;;;;;10.24;88.45;101198.28;5017646;28;20416;-66